MKC weather

Charles B. Wheeler Downtown Airport
Kansas City, Missouri, United States

Public forecast

Using degrees Fahrenheit for public forecast. Weather courtesy of forecast.io.

METAR (pilot weather report)

Retrieved 2017/12/15 15:54 UTC (33 minutes ago):

KMKC 151554Z 24006KT 10SM CLR 03/M02 A3016 RMK AO2 SLP216 T00331022

TAF (pilot weather forecast)

Retrieved 2017/12/15 12:30 UTC (4 hours ago):

TAF KMKC 151129Z 1512/1612 28006KT P6SM OVC060 FM151700 26008G20KT P6SM FEW250 FM152300 22008KT P6SM FEW250 FM160300 22009KT P6SM FEW250 WS020/23040KT